sensor_id;sensor_type;location;lat;lon;timestamp;pressure;altitude;pressure_sealevel;temperature;humidity
48089;BME280;33867;50.314;7.802;2023-08-30T00:02:26;99744.38;;;14.83;86.74
48089;BME280;33867;50.314;7.802;2023-08-30T00:05:45;99736.16;;;14.91;86.19
48089;BME280;33867;50.314;7.802;2023-08-30T00:09:04;99744.91;;;14.64;89.12
48089;BME280;33867;50.314;7.802;2023-08-30T00:12:23;99745.69;;;14.87;86.83
48089;BME280;33867;50.314;7.802;2023-08-30T00:15:43;99738.78;;;15.00;86.39
48089;BME280;33867;50.314;7.802;2023-08-30T00:19:03;99738.50;;;14.95;86.44
48089;BME280;33867;50.314;7.802;2023-08-30T00:22:22;99737.75;;;15.01;85.90
48089;BME280;33867;50.314;7.802;2023-08-30T00:25:42;99741.22;;;14.95;86.20
48089;BME280;33867;50.314;7.802;2023-08-30T00:29:02;99738.13;;;14.98;86.11
48089;BME280;33867;50.314;7.802;2023-08-30T00:32:22;99740.19;;;14.96;85.63
48089;BME280;33867;50.314;7.802;2023-08-30T00:35:42;99733.34;;;15.00;85.60
48089;BME280;33867;50.314;7.802;2023-08-30T00:39:02;99739.16;;;14.97;85.70
48089;BME280;33867;50.314;7.802;2023-08-30T00:42:22;99729.25;;;15.04;85.17
48089;BME280;33867;50.314;7.802;2023-08-30T00:45:42;99726.25;;;14.99;85.79
48089;BME280;33867;50.314;7.802;2023-08-30T00:49:02;99731.47;;;15.00;85.32
48089;BME280;33867;50.314;7.802;2023-08-30T00:52:21;99728.59;;;14.72;87.22
48089;BME280;33867;50.314;7.802;2023-08-30T00:55:42;99715.69;;;14.74;86.70
48089;BME280;33867;50.314;7.802;2023-08-30T00:59:01;99718.19;;;14.90;85.78
48089;BME280;33867;50.314;7.802;2023-08-30T01:02:20;99714.38;;;15.00;85.63
48089;BME280;33867;50.314;7.802;2023-08-30T01:05:40;99712.31;;;15.02;85.43
48089;BME280;33867;50.314;7.802;2023-08-30T01:08:59;99710.44;;;15.02;85.22
48089;BME280;33867;50.314;7.802;2023-08-30T01:12:22;99710.44;;;15.02;85.01
48089;BME280;33867;50.314;7.802;2023-08-30T01:15:42;99704.19;;;15.02;85.36
48089;BME280;33867;50.314;7.802;2023-08-30T01:19:11;99696.03;;;15.02;85.30
48089;BME280;33867;50.314;7.802;2023-08-30T01:22:58;99689.44;;;15.04;85.37
48089;BME280;33867;50.314;7.802;2023-08-30T01:29:59;99692.59;;;15.08;84.90
48089;BME280;33867;50.314;7.802;2023-08-30T01:33:19;99691.38;;;15.10;85.16
48089;BME280;33867;50.314;7.802;2023-08-30T01:36:39;99693.88;;;15.12;85.17
48089;BME280;33867;50.314;7.802;2023-08-30T01:40:02;99686.59;;;15.12;85.05
48089;BME280;33867;50.314;7.802;2023-08-30T01:43:25;99685.09;;;15.10;85.04
48089;BME280;33867;50.314;7.802;2023-08-30T01:46:44;99680.94;;;14.93;86.75
48089;BME280;33867;50.314;7.802;2023-08-30T01:50:06;99688.13;;;14.85;87.03
48089;BME280;33867;50.314;7.802;2023-08-30T01:53:26;99674.00;;;14.90;87.61
48089;BME280;33867;50.314;7.802;2023-08-30T01:56:47;99670.81;;;15.01;85.96
48089;BME280;33867;50.314;7.802;2023-08-30T02:00:06;99675.56;;;15.14;85.36
48089;BME280;33867;50.314;7.802;2023-08-30T02:03:34;99669.41;;;14.90;88.04
48089;BME280;33867;50.314;7.802;2023-08-30T02:07:03;99669.88;;;14.65;90.19
48089;BME280;33867;50.314;7.802;2023-08-30T02:10:25;99665.31;;;14.95;86.70
48089;BME280;33867;50.314;7.802;2023-08-30T02:13:48;99662.47;;;15.03;86.61
48089;BME280;33867;50.314;7.802;2023-08-30T02:17:08;99661.19;;;14.99;86.71
48089;BME280;33867;50.314;7.802;2023-08-30T02:20:27;99658.19;;;15.08;86.01
48089;BME280;33867;50.314;7.802;2023-08-30T02:23:52;99665.75;;;15.13;85.59
48089;BME280;33867;50.314;7.802;2023-08-30T02:27:11;99680.97;;;15.14;86.11
48089;BME280;33867;50.314;7.802;2023-08-30T02:30:32;99678.09;;;15.15;86.03
48089;BME280;33867;50.314;7.802;2023-08-30T02:33:51;99677.22;;;15.15;85.93
48089;BME280;33867;50.314;7.802;2023-08-30T02:37:10;99666.19;;;14.80;87.86
48089;BME280;33867;50.314;7.802;2023-08-30T02:40:32;99661.19;;;14.99;86.84
48089;BME280;33867;50.314;7.802;2023-08-30T02:43:51;99660.06;;;15.08;86.20
48089;BME280;33867;50.314;7.802;2023-08-30T02:47:11;99669.22;;;15.07;86.34
48089;BME280;33867;50.314;7.802;2023-08-30T02:50:30;99677.06;;;15.02;86.70
48089;BME280;33867;50.314;7.802;2023-08-30T02:53:49;99669.50;;;14.97;86.47
48089;BME280;33867;50.314;7.802;2023-08-30T02:57:11;99671.09;;;14.91;86.21
48089;BME280;33867;50.314;7.802;2023-08-30T03:00:30;99677.16;;;14.79;86.47
48089;BME280;33867;50.314;7.802;2023-08-30T03:03:50;99680.28;;;14.61;86.73
48089;BME280;33867;50.314;7.802;2023-08-30T03:07:11;99665.34;;;14.42;87.65
48089;BME280;33867;50.314;7.802;2023-08-30T03:10:30;99654.66;;;14.49;87.27
48089;BME280;33867;50.314;7.802;2023-08-30T03:13:58;99658.69;;;14.53;86.89
48089;BME280;33867;50.314;7.802;2023-08-30T03:17:20;99661.38;;;14.53;86.81
48089;BME280;33867;50.314;7.802;2023-08-30T03:20:39;99654.06;;;14.39;87.94
48089;BME280;33867;50.314;7.802;2023-08-30T03:24:02;99665.44;;;14.57;86.58
48089;BME280;33867;50.314;7.802;2023-08-30T03:27:21;99656.34;;;14.50;87.58
48089;BME280;33867;50.314;7.802;2023-08-30T03:30:40;99656.50;;;14.33;88.41
48089;BME280;33867;50.314;7.802;2023-08-30T03:34:00;99658.38;;;14.33;89.24
48089;BME280;33867;50.314;7.802;2023-08-30T03:37:19;99663.22;;;14.38;89.06
48089;BME280;33867;50.314;7.802;2023-08-30T03:40:39;99653.56;;;14.20;89.62
48089;BME280;33867;50.314;7.802;2023-08-30T03:44:00;99657.81;;;14.38;88.16
48089;BME280;33867;50.314;7.802;2023-08-30T03:47:18;99664.84;;;14.47;87.23
48089;BME280;33867;50.314;7.802;2023-08-30T03:50:37;99656.06;;;14.07;88.77
48089;BME280;33867;50.314;7.802;2023-08-30T03:53:57;99657.38;;;14.11;89.03
48089;BME280;33867;50.314;7.802;2023-08-30T03:57:16;99654.75;;;14.03;89.57
48089;BME280;33867;50.314;7.802;2023-08-30T04:00:38;99658.69;;;14.15;88.86
48089;BME280;33867;50.314;7.802;2023-08-30T04:03:58;99662.63;;;14.27;87.73
48089;BME280;33867;50.314;7.802;2023-08-30T04:07:17;99652.75;;;14.34;87.34
48089;BME280;33867;50.314;7.802;2023-08-30T04:10:37;99667.34;;;14.33;87.57
48089;BME280;33867;50.314;7.802;2023-08-30T04:13:56;99665.34;;;13.90;88.11
48089;BME280;33867;50.314;7.802;2023-08-30T04:17:15;99668.13;;;13.59;89.43
48089;BME280;33867;50.314;7.802;2023-08-30T04:20:34;99655.97;;;13.78;89.44
48089;BME280;33867;50.314;7.802;2023-08-30T04:23:53;99655.72;;;14.10;87.86
48089;BME280;33867;50.314;7.802;2023-08-30T04:27:15;99658.03;;;14.13;87.72
48089;BME280;33867;50.314;7.802;2023-08-30T04:30:36;99660.75;;;14.13;87.92
48089;BME280;33867;50.314;7.802;2023-08-30T04:33:56;99666.63;;;14.17;87.47
48089;BME280;33867;50.314;7.802;2023-08-30T04:37:15;99661.22;;;13.56;89.79
48089;BME280;33867;50.314;7.802;2023-08-30T04:40:34;99659.56;;;13.47;91.25
48089;BME280;33867;50.314;7.802;2023-08-30T04:43:57;99662.28;;;13.47;91.94
48089;BME280;33867;50.314;7.802;2023-08-30T04:47:16;99653.56;;;13.37;92.35
48089;BME280;33867;50.314;7.802;2023-08-30T04:50:34;99647.19;;;13.30;93.48
48089;BME280;33867;50.314;7.802;2023-08-30T04:53:54;99658.63;;;13.40;92.62
48089;BME280;33867;50.314;7.802;2023-08-30T04:57:13;99644.19;;;13.70;89.70
48089;BME280;33867;50.314;7.802;2023-08-30T05:00:49;99649.84;;;13.84;88.87
48089;BME280;33867;50.314;7.802;2023-08-30T05:04:08;99651.75;;;13.98;88.00
48089;BME280;33867;50.314;7.802;2023-08-30T05:07:29;99644.56;;;14.05;87.05
48089;BME280;33867;50.314;7.802;2023-08-30T05:10:47;99641.50;;;14.08;87.13
48089;BME280;33867;50.314;7.802;2023-08-30T05:14:07;99638.06;;;14.14;86.55
48089;BME280;33867;50.314;7.802;2023-08-30T05:17:31;99644.59;;;14.20;86.55
48089;BME280;33867;50.314;7.802;2023-08-30T05:20:51;99637.50;;;14.19;86.81
48089;BME280;33867;50.314;7.802;2023-08-30T05:24:11;99648.53;;;14.17;86.38
48089;BME280;33867;50.314;7.802;2023-08-30T05:27:30;99650.19;;;14.18;85.44
48089;BME280;33867;50.314;7.802;2023-08-30T05:30:49;99648.06;;;13.53;87.88
48089;BME280;33867;50.314;7.802;2023-08-30T05:34:21;99642.03;;;13.43;89.67
48089;BME280;33867;50.314;7.802;2023-08-30T05:38:03;99636.38;;;13.75;87.82
48089;BME280;33867;50.314;7.802;2023-08-30T05:41:41;99647.81;;;13.86;87.05
48089;BME280;33867;50.314;7.802;2023-08-30T05:45:00;99639.72;;;13.63;88.19
48089;BME280;33867;50.314;7.802;2023-08-30T05:48:20;99638.78;;;13.70;88.17
48089;BME280;33867;50.314;7.802;2023-08-30T05:51:39;99647.13;;;13.84;87.83
48089;BME280;33867;50.314;7.802;2023-08-30T05:54:59;99640.19;;;13.66;88.38
48089;BME280;33867;50.314;7.802;2023-08-30T05:58:17;99648.09;;;13.91;87.37
48089;BME280;33867;50.314;7.802;2023-08-30T06:01:39;99650.16;;;13.89;87.26
48089;BME280;33867;50.314;7.802;2023-08-30T06:04:58;99650.19;;;14.18;86.65
48089;BME280;33867;50.314;7.802;2023-08-30T06:08:17;99648.44;;;14.25;86.50
48089;BME280;33867;50.314;7.802;2023-08-30T06:11:37;99648.53;;;14.32;86.27
48089;BME280;33867;50.314;7.802;2023-08-30T06:14:56;99638.84;;;14.38;86.13
48089;BME280;33867;50.314;7.802;2023-08-30T06:18:15;99641.66;;;14.44;86.37
48089;BME280;33867;50.314;7.802;2023-08-30T06:21:34;99639.25;;;14.49;85.60
48089;BME280;33867;50.314;7.802;2023-08-30T06:24:53;99638.97;;;14.59;85.15
48089;BME280;33867;50.314;7.802;2023-08-30T06:28:12;99628.78;;;14.61;85.62
48089;BME280;33867;50.314;7.802;2023-08-30T06:31:31;99636.09;;;14.60;85.55
48089;BME280;33867;50.314;7.802;2023-08-30T06:34:51;99619.53;;;14.70;84.99
48089;BME280;33867;50.314;7.802;2023-08-30T06:38:10;99622.44;;;14.69;84.89
48089;BME280;33867;50.314;7.802;2023-08-30T06:41:29;99629.72;;;14.83;84.45
48089;BME280;33867;50.314;7.802;2023-08-30T06:44:48;99635.16;;;14.68;84.67
48089;BME280;33867;50.314;7.802;2023-08-30T06:48:07;99630.47;;;14.62;84.52
48089;BME280;33867;50.314;7.802;2023-08-30T06:51:26;99629.75;;;14.30;86.83
48089;BME280;33867;50.314;7.802;2023-08-30T06:54:45;99623.22;;;14.10;87.63
48089;BME280;33867;50.314;7.802;2023-08-30T06:58:05;99622.16;;;14.49;85.50
48089;BME280;33867;50.314;7.802;2023-08-30T07:01:24;99625.19;;;14.90;85.11
48089;BME280;33867;50.314;7.802;2023-08-30T07:04:43;99627.97;;;15.11;84.16
48089;BME280;33867;50.314;7.802;2023-08-30T07:08:02;99641.19;;;15.36;83.21
48089;BME280;33867;50.314;7.802;2023-08-30T07:11:21;99618.72;;;15.42;83.10
48089;BME280;33867;50.314;7.802;2023-08-30T07:14:41;99617.63;;;15.58;81.29
48089;BME280;33867;50.314;7.802;2023-08-30T07:18:00;99617.84;;;15.77;81.13
48089;BME280;33867;50.314;7.802;2023-08-30T07:21:19;99610.47;;;15.71;80.99
48089;BME280;33867;50.314;7.802;2023-08-30T07:24:38;99614.63;;;15.67;80.87
48089;BME280;33867;50.314;7.802;2023-08-30T07:27:58;99614.09;;;15.78;80.94
48089;BME280;33867;50.314;7.802;2023-08-30T07:31:17;99617.00;;;15.77;80.94
48089;BME280;33867;50.314;7.802;2023-08-30T07:34:36;99615.66;;;16.16;78.42
48089;BME280;33867;50.314;7.802;2023-08-30T07:37:58;99621.88;;;17.20;76.31
48089;BME280;33867;50.314;7.802;2023-08-30T07:41:17;99615.72;;;17.66;73.73
48089;BME280;33867;50.314;7.802;2023-08-30T07:44:36;99606.13;;;17.90;73.06
48089;BME280;33867;50.314;7.802;2023-08-30T07:47:56;99610.09;;;18.07;70.81
48089;BME280;33867;50.314;7.802;2023-08-30T07:51:14;99604.56;;;18.53;70.67
48089;BME280;33867;50.314;7.802;2023-08-30T07:54:34;99601.16;;;18.84;69.11
48089;BME280;33867;50.314;7.802;2023-08-30T07:57:53;99600.56;;;18.56;69.43
48089;BME280;33867;50.314;7.802;2023-08-30T08:01:12;99599.44;;;18.96;68.82
48089;BME280;33867;50.314;7.802;2023-08-30T08:04:31;99597.44;;;18.72;69.02
48089;BME280;33867;50.314;7.802;2023-08-30T08:07:52;99591.88;;;18.98;68.61
48089;BME280;33867;50.314;7.802;2023-08-30T08:11:11;99588.75;;;18.88;69.08
48089;BME280;33867;50.314;7.802;2023-08-30T08:14:30;99580.91;;;19.43;67.86
48089;BME280;33867;50.314;7.802;2023-08-30T08:17:49;99568.50;;;19.47;66.90
48089;BME280;33867;50.314;7.802;2023-08-30T08:21:09;99575.78;;;19.85;66.73
48089;BME280;33867;50.314;7.802;2023-08-30T08:24:28;99573.31;;;20.27;64.83
48089;BME280;33867;50.314;7.802;2023-08-30T08:27:47;99571.94;;;20.36;65.91
48089;BME280;33867;50.314;7.802;2023-08-30T08:31:06;99563.09;;;20.40;65.55
48089;BME280;33867;50.314;7.802;2023-08-30T08:34:25;99566.19;;;20.26;66.07
48089;BME280;33867;50.314;7.802;2023-08-30T08:37:44;99566.28;;;20.12;65.42
48089;BME280;33867;50.314;7.802;2023-08-30T08:41:06;99559.34;;;20.35;66.11
48089;BME280;33867;50.314;7.802;2023-08-30T08:44:26;99560.25;;;19.85;66.59
48089;BME280;33867;50.314;7.802;2023-08-30T08:47:47;99554.72;;;19.92;66.61
48089;BME280;33867;50.314;7.802;2023-08-30T08:51:10;99557.94;;;20.07;65.93
48089;BME280;33867;50.314;7.802;2023-08-30T08:54:30;99552.19;;;20.34;65.90
48089;BME280;33867;50.314;7.802;2023-08-30T08:57:49;99563.28;;;20.64;65.88
48089;BME280;33867;50.314;7.802;2023-08-30T09:01:11;99558.03;;;20.62;65.38
48089;BME280;33867;50.314;7.802;2023-08-30T09:04:30;99556.22;;;20.13;64.55
48089;BME280;33867;50.314;7.802;2023-08-30T09:07:50;99559.69;;;20.45;66.01
48089;BME280;33867;50.314;7.802;2023-08-30T09:11:12;99556.47;;;20.30;66.83
48089;BME280;33867;50.314;7.802;2023-08-30T09:14:31;99548.72;;;20.82;66.29
48089;BME280;33867;50.314;7.802;2023-08-30T09:17:50;99547.16;;;20.74;65.21
48089;BME280;33867;50.314;7.802;2023-08-30T09:21:14;99549.66;;;20.76;61.17
48089;BME280;33867;50.314;7.802;2023-08-30T09:24:40;99540.94;;;20.67;60.79
48089;BME280;33867;50.314;7.802;2023-08-30T09:28:00;99530.16;;;20.54;60.64
48089;BME280;33867;50.314;7.802;2023-08-30T09:31:19;99531.97;;;21.08;63.89
48089;BME280;33867;50.314;7.802;2023-08-30T09:34:45;99533.97;;;21.01;64.16
48089;BME280;33867;50.314;7.802;2023-08-30T09:38:04;99535.03;;;21.00;65.03
48089;BME280;33867;50.314;7.802;2023-08-30T09:41:24;99528.09;;;20.67;65.99
48089;BME280;33867;50.314;7.802;2023-08-30T09:44:43;99531.56;;;20.38;64.77
48089;BME280;33867;50.314;7.802;2023-08-30T09:48:04;99519.53;;;20.21;65.33
48089;BME280;33867;50.314;7.802;2023-08-30T09:51:25;99526.53;;;20.17;67.24
48089;BME280;33867;50.314;7.802;2023-08-30T09:54:46;99522.19;;;20.09;65.98
48089;BME280;33867;50.314;7.802;2023-08-30T09:58:06;99523.75;;;19.80;65.22
48089;BME280;33867;50.314;7.802;2023-08-30T10:01:26;99522.69;;;19.99;67.30
48089;BME280;33867;50.314;7.802;2023-08-30T10:04:47;99521.94;;;19.92;66.02
48089;BME280;33867;50.314;7.802;2023-08-30T10:08:07;99514.00;;;20.09;64.94
48089;BME280;33867;50.314;7.802;2023-08-30T10:11:28;99508.09;;;20.30;66.74
48089;BME280;33867;50.314;7.802;2023-08-30T10:14:48;99503.16;;;20.57;59.49
48089;BME280;33867;50.314;7.802;2023-08-30T10:18:08;99507.50;;;21.55;61.32
48089;BME280;33867;50.314;7.802;2023-08-30T10:21:29;99494.88;;;21.24;60.42
48089;BME280;33867;50.314;7.802;2023-08-30T10:25:04;99505.16;;;21.28;60.55
48089;BME280;33867;50.314;7.802;2023-08-30T10:28:26;99491.88;;;21.14;58.67
48089;BME280;33867;50.314;7.802;2023-08-30T10:31:46;99480.50;;;22.17;60.18
48089;BME280;33867;50.314;7.802;2023-08-30T10:35:14;99476.41;;;22.71;55.35
48089;BME280;33867;50.314;7.802;2023-08-30T10:38:34;99473.44;;;23.01;55.00
48089;BME280;33867;50.314;7.802;2023-08-30T10:41:57;99478.28;;;23.56;55.33
48089;BME280;33867;50.314;7.802;2023-08-30T10:45:23;99474.72;;;24.11;52.82
48089;BME280;33867;50.314;7.802;2023-08-30T10:48:43;99473.63;;;23.74;51.00
48089;BME280;33867;50.314;7.802;2023-08-30T10:52:02;99467.28;;;24.29;51.65
48089;BME280;33867;50.314;7.802;2023-08-30T10:55:22;99455.22;;;24.52;51.14
48089;BME280;33867;50.314;7.802;2023-08-30T10:58:43;99461.53;;;24.30;51.66
48089;BME280;33867;50.314;7.802;2023-08-30T11:02:03;99454.00;;;24.26;51.34
48089;BME280;33867;50.314;7.802;2023-08-30T11:05:25;99452.44;;;23.91;52.13
48089;BME280;33867;50.314;7.802;2023-08-30T11:08:45;99453.03;;;24.15;51.86
48089;BME280;33867;50.314;7.802;2023-08-30T11:12:07;99450.84;;;24.34;51.79
48089;BME280;33867;50.314;7.802;2023-08-30T11:15:29;99435.44;;;24.55;50.77
48089;BME280;33867;50.314;7.802;2023-08-30T11:18:49;99441.47;;;24.78;51.58
48089;BME280;33867;50.314;7.802;2023-08-30T11:22:08;99447.31;;;25.09;50.94
48089;BME280;33867;50.314;7.802;2023-08-30T11:25:28;99438.41;;;25.29;43.12
48089;BME280;33867;50.314;7.802;2023-08-30T11:28:50;99434.00;;;25.97;47.71
48089;BME280;33867;50.314;7.802;2023-08-30T11:32:11;99433.56;;;25.73;46.82
48089;BME280;33867;50.314;7.802;2023-08-30T11:35:31;99433.25;;;25.38;43.61
48089;BME280;33867;50.314;7.802;2023-08-30T11:38:56;99431.69;;;25.15;48.54
48089;BME280;33867;50.314;7.802;2023-08-30T11:42:15;99441.88;;;24.65;49.16
48089;BME280;33867;50.314;7.802;2023-08-30T11:45:36;99428.59;;;23.97;49.14
48089;BME280;33867;50.314;7.802;2023-08-30T11:48:55;99429.47;;;23.80;49.77
48089;BME280;33867;50.314;7.802;2023-08-30T11:52:16;99432.81;;;23.82;51.56
48089;BME280;33867;50.314;7.802;2023-08-30T11:55:36;99428.22;;;23.71;50.44
48089;BME280;33867;50.314;7.802;2023-08-30T11:58:56;99429.31;;;23.70;50.12
48089;BME280;33867;50.314;7.802;2023-08-30T12:02:17;99425.44;;;23.54;49.74
48089;BME280;33867;50.314;7.802;2023-08-30T12:05:44;99421.81;;;23.49;49.37
48089;BME280;33867;50.314;7.802;2023-08-30T12:09:04;99422.06;;;23.47;51.84
48089;BME280;33867;50.314;7.802;2023-08-30T12:12:24;99433.13;;;23.52;50.67
48089;BME280;33867;50.314;7.802;2023-08-30T12:15:45;99436.47;;;23.21;53.59
48089;BME280;33867;50.314;7.802;2023-08-30T12:19:11;99431.75;;;23.04;54.99
48089;BME280;33867;50.314;7.802;2023-08-30T12:22:38;99428.53;;;22.79;54.73
48089;BME280;33867;50.314;7.802;2023-08-30T12:29:18;99424.09;;;21.51;57.71
48089;BME280;33867;50.314;7.802;2023-08-30T12:32:37;99428.91;;;21.14;56.20
48089;BME280;33867;50.314;7.802;2023-08-30T12:35:57;99426.59;;;21.64;57.71
48089;BME280;33867;50.314;7.802;2023-08-30T12:39:17;99410.66;;;22.36;58.39
48089;BME280;33867;50.314;7.802;2023-08-30T12:42:36;99403.31;;;22.82;52.34
48089;BME280;33867;50.314;7.802;2023-08-30T12:45:56;99399.97;;;23.09;50.65
48089;BME280;33867;50.314;7.802;2023-08-30T12:49:18;99405.00;;;23.12;53.64
48089;BME280;33867;50.314;7.802;2023-08-30T12:52:37;99399.81;;;22.98;52.89
48089;BME280;33867;50.314;7.802;2023-08-30T12:55:56;99397.75;;;21.97;52.10
48089;BME280;33867;50.314;7.802;2023-08-30T12:59:16;99396.91;;;22.48;54.95
48089;BME280;33867;50.314;7.802;2023-08-30T13:02:35;99403.72;;;21.94;53.37
48089;BME280;33867;50.314;7.802;2023-08-30T13:05:54;99403.16;;;21.56;52.71
48089;BME280;33867;50.314;7.802;2023-08-30T13:09:13;99403.03;;;21.51;54.90
48089;BME280;33867;50.314;7.802;2023-08-30T13:12:32;99401.25;;;21.45;56.23
48089;BME280;33867;50.314;7.802;2023-08-30T13:15:51;99388.63;;;21.56;55.88
48089;BME280;33867;50.314;7.802;2023-08-30T13:19:11;99385.66;;;21.69;52.89
48089;BME280;33867;50.314;7.802;2023-08-30T13:22:30;99373.97;;;22.26;53.88
48089;BME280;33867;50.314;7.802;2023-08-30T13:25:49;99379.78;;;22.98;53.29
48089;BME280;33867;50.314;7.802;2023-08-30T13:29:09;99391.75;;;23.42;51.39
48089;BME280;33867;50.314;7.802;2023-08-30T13:32:28;99395.56;;;23.41;48.21
48089;BME280;33867;50.314;7.802;2023-08-30T13:35:50;99380.53;;;23.60;50.87
48089;BME280;33867;50.314;7.802;2023-08-30T13:39:12;99398.09;;;23.98;48.76
48089;BME280;33867;50.314;7.802;2023-08-30T13:42:32;99389.16;;;24.30;49.99
48089;BME280;33867;50.314;7.802;2023-08-30T13:45:58;99382.50;;;23.82;47.45
48089;BME280;33867;50.314;7.802;2023-08-30T13:49:18;99375.69;;;23.34;50.57
48089;BME280;33867;50.314;7.802;2023-08-30T13:52:37;99371.03;;;23.68;50.52
48089;BME280;33867;50.314;7.802;2023-08-30T13:55:56;99362.13;;;24.27;50.63
48089;BME280;33867;50.314;7.802;2023-08-30T13:59:16;99361.34;;;24.75;48.23
48089;BME280;33867;50.314;7.802;2023-08-30T14:02:36;99369.50;;;24.97;48.61
48089;BME280;33867;50.314;7.802;2023-08-30T14:05:55;99370.63;;;24.42;46.39
48089;BME280;33867;50.314;7.802;2023-08-30T14:09:14;99365.03;;;24.37;49.18
48089;BME280;33867;50.314;7.802;2023-08-30T14:12:33;99363.81;;;24.28;48.02
48089;BME280;33867;50.314;7.802;2023-08-30T14:15:52;99361.97;;;24.33;48.92
48089;BME280;33867;50.314;7.802;2023-08-30T14:19:12;99368.13;;;23.58;48.09
48089;BME280;33867;50.314;7.802;2023-08-30T14:22:32;99363.19;;;23.43;49.78
48089;BME280;33867;50.314;7.802;2023-08-30T14:26:05;99358.66;;;22.98;50.27
48089;BME280;33867;50.314;7.802;2023-08-30T14:29:28;99371.59;;;22.29;51.61
48089;BME280;33867;50.314;7.802;2023-08-30T14:32:47;99352.81;;;22.09;52.14
48089;BME280;33867;50.314;7.802;2023-08-30T14:36:09;99370.06;;;22.22;51.38
48089;BME280;33867;50.314;7.802;2023-08-30T14:39:29;99359.25;;;22.43;52.56
48089;BME280;33867;50.314;7.802;2023-08-30T14:42:48;99373.56;;;22.45;51.86
48089;BME280;33867;50.314;7.802;2023-08-30T14:46:07;99368.38;;;22.32;52.90
48089;BME280;33867;50.314;7.802;2023-08-30T14:49:26;99374.91;;;21.79;52.06
48089;BME280;33867;50.314;7.802;2023-08-30T14:52:45;99375.88;;;21.50;53.28
48089;BME280;33867;50.314;7.802;2023-08-30T14:56:04;99382.09;;;21.34;58.64
48089;BME280;33867;50.314;7.802;2023-08-30T14:59:26;99390.09;;;21.05;59.98
48089;BME280;33867;50.314;7.802;2023-08-30T15:02:45;99400.78;;;20.95;59.73
48089;BME280;33867;50.314;7.802;2023-08-30T15:06:04;99392.03;;;20.63;61.64
48089;BME280;33867;50.314;7.802;2023-08-30T15:09:23;99398.59;;;20.73;61.80
48089;BME280;33867;50.314;7.802;2023-08-30T15:12:43;99421.00;;;20.52;65.34
48089;BME280;33867;50.314;7.802;2023-08-30T15:16:02;99420.06;;;20.40;65.94
48089;BME280;33867;50.314;7.802;2023-08-30T15:19:21;99430.19;;;20.21;66.44
48089;BME280;33867;50.314;7.802;2023-08-30T15:22:40;99431.00;;;20.22;66.90
48089;BME280;33867;50.314;7.802;2023-08-30T15:25:59;99438.84;;;20.18;66.46
48089;BME280;33867;50.314;7.802;2023-08-30T15:29:19;99435.09;;;20.12;67.44
48089;BME280;33867;50.314;7.802;2023-08-30T15:32:38;99442.03;;;19.97;67.05
48089;BME280;33867;50.314;7.802;2023-08-30T15:35:57;99444.31;;;20.18;67.29
48089;BME280;33867;50.314;7.802;2023-08-30T15:39:17;99439.38;;;20.08;67.80
48089;BME280;33867;50.314;7.802;2023-08-30T15:42:37;99443.44;;;19.99;68.68
48089;BME280;33867;50.314;7.802;2023-08-30T15:45:56;99450.63;;;19.75;67.63
48089;BME280;33867;50.314;7.802;2023-08-30T15:49:15;99455.88;;;19.52;69.81
48089;BME280;33867;50.314;7.802;2023-08-30T15:52:34;99457.75;;;19.26;70.23
48089;BME280;33867;50.314;7.802;2023-08-30T15:55:53;99459.16;;;19.11;70.99
48089;BME280;33867;50.314;7.802;2023-08-30T15:59:13;99454.47;;;19.18;70.58
48089;BME280;33867;50.314;7.802;2023-08-30T16:02:35;99443.94;;;18.96;73.45
48089;BME280;33867;50.314;7.802;2023-08-30T16:05:55;99433.53;;;18.80;73.78
48089;BME280;33867;50.314;7.802;2023-08-30T16:09:14;99434.09;;;18.95;72.68
48089;BME280;33867;50.314;7.802;2023-08-30T16:12:33;99421.16;;;18.84;73.08
48089;BME280;33867;50.314;7.802;2023-08-30T16:15:53;99429.25;;;18.97;72.80
48089;BME280;33867;50.314;7.802;2023-08-30T16:19:12;99426.75;;;19.21;73.37
48089;BME280;33867;50.314;7.802;2023-08-30T16:22:31;99421.69;;;19.24;72.33
48089;BME280;33867;50.314;7.802;2023-08-30T16:25:59;99426.75;;;19.21;72.43
48089;BME280;33867;50.314;7.802;2023-08-30T16:29:18;99432.81;;;19.23;72.90
48089;BME280;33867;50.314;7.802;2023-08-30T16:32:36;99426.53;;;19.22;72.45
48089;BME280;33867;50.314;7.802;2023-08-30T16:35:55;99446.13;;;19.13;72.85
48089;BME280;33867;50.314;7.802;2023-08-30T16:39:17;99433.88;;;18.90;75.40
48089;BME280;33867;50.314;7.802;2023-08-30T16:42:36;99422.38;;;18.88;73.44
48089;BME280;33867;50.314;7.802;2023-08-30T16:45:55;99418.59;;;18.89;73.91
48089;BME280;33867;50.314;7.802;2023-08-30T16:49:16;99429.41;;;18.71;73.61
48089;BME280;33867;50.314;7.802;2023-08-30T16:52:35;99426.97;;;18.94;73.82
48089;BME280;33867;50.314;7.802;2023-08-30T16:55:54;99408.81;;;19.07;73.15
48089;BME280;33867;50.314;7.802;2023-08-30T16:59:13;99439.88;;;19.06;72.85
48089;BME280;33867;50.314;7.802;2023-08-30T17:02:32;99446.63;;;18.65;73.60
48089;BME280;33867;50.314;7.802;2023-08-30T17:05:55;99453.63;;;17.70;75.14
48089;BME280;33867;50.314;7.802;2023-08-30T17:09:15;99462.63;;;17.44;74.65
48089;BME280;33867;50.314;7.802;2023-08-30T17:12:34;99478.75;;;17.65;75.43
48089;BME280;33867;50.314;7.802;2023-08-30T17:15:53;99483.97;;;17.47;75.85
48089;BME280;33867;50.314;7.802;2023-08-30T17:19:16;99493.00;;;17.41;76.09
48089;BME280;33867;50.314;7.802;2023-08-30T17:22:36;99504.91;;;17.33;76.89
48089;BME280;33867;50.314;7.802;2023-08-30T17:25:55;99499.66;;;17.25;77.32
48089;BME280;33867;50.314;7.802;2023-08-30T17:29:14;99517.84;;;17.11;77.69
48089;BME280;33867;50.314;7.802;2023-08-30T17:32:37;99530.41;;;17.06;79.66
48089;BME280;33867;50.314;7.802;2023-08-30T17:35:56;99527.84;;;16.91;80.05
48089;BME280;33867;50.314;7.802;2023-08-30T17:39:15;99518.00;;;16.90;79.52
48089;BME280;33867;50.314;7.802;2023-08-30T17:42:34;99525.09;;;16.78;80.07
48089;BME280;33867;50.314;7.802;2023-08-30T17:45:53;99538.47;;;16.73;81.19
48089;BME280;33867;50.314;7.802;2023-08-30T17:49:12;99545.06;;;16.63;79.87